Time;durP1;ratioP1;P1;durP2;ratioP2;P2;SDS_P1;SDS_P2;PMS_P1;PMS_P2;Temp;Humidity;BMP_temperature;BMP_pressure;BME280_temperature;BME280_humidity;BME280_pressure;Samples;Min_cycle;Max_cycle;Signal;HPM_P1;HPM_P2
2024/01/04 00:01:50;;;;;;;6.00;1.10;;;7.00;99.90;;;;;;5114281;28;20036;-80
2024/01/04 00:04:15;;;;;;;3.60;1.33;;;7.00;99.90;;;;;;5114744;28;20040;-80
2024/01/04 00:06:44;;;;;;;3.83;1.02;;;7.00;99.90;;;;;;5114153;27;20137;-80
2024/01/04 00:09:12;;;;;;;5.70;1.10;;;6.90;99.90;;;;;;5129429;27;20046;-80
2024/01/04 00:11:38;;;;;;;6.05;1.25;;;6.90;99.90;;;;;;5114743;28;20492;-80
2024/01/04 00:14:06;;;;;;;5.13;0.93;;;6.90;99.90;;;;;;5112899;28;20065;-80
2024/01/04 00:16:35;;;;;;;4.65;1.40;;;6.80;99.90;;;;;;5096993;28;20050;-80
2024/01/04 00:19:00;;;;;;;4.20;0.90;;;6.80;99.90;;;;;;5129769;27;20046;-80
2024/01/04 00:21:26;;;;;;;4.53;0.80;;;6.80;99.90;;;;;;5097166;28;20035;-80
2024/01/04 00:23:51;;;;;;;3.33;0.85;;;6.80;99.90;;;;;;5096760;28;20027;-80
2024/01/04 00:26:17;;;;;;;5.93;1.05;;;6.80;99.90;;;;;;5096780;28;20043;-80
2024/01/04 00:28:43;;;;;;;4.43;1.13;;;6.70;99.90;;;;;;5096658;28;20119;-80
2024/01/04 00:31:08;;;;;;;3.22;1.17;;;6.80;99.90;;;;;;5147363;27;20044;-80
2024/01/04 00:33:34;;;;;;;4.03;0.90;;;6.80;99.90;;;;;;5113018;28;20505;-80
2024/01/04 00:35:59;;;;;;;4.57;0.80;;;6.80;99.90;;;;;;5096397;28;20055;-80
2024/01/04 00:38:25;;;;;;;3.63;1.00;;;6.70;99.90;;;;;;5114216;28;20036;-80
2024/01/04 00:40:51;;;;;;;4.38;1.13;;;6.70;99.90;;;;;;5112065;28;20430;-80
2024/01/04 00:43:17;;;;;;;3.95;1.10;;;6.70;99.90;;;;;;5114027;28;20082;-80
2024/01/04 00:45:43;;;;;;;4.25;1.08;;;6.70;99.90;;;;;;5112767;27;20468;-80
2024/01/04 00:48:08;;;;;;;4.43;1.13;;;6.70;99.90;;;;;;5096959;28;20079;-80
2024/01/04 00:50:34;;;;;;;5.22;0.90;;;6.70;99.90;;;;;;5111965;28;20038;-80
2024/01/04 00:53:01;;;;;;;4.55;1.10;;;6.70;99.90;;;;;;5147043;27;20059;-80
2024/01/04 00:55:27;;;;;;;3.03;0.80;;;6.60;99.90;;;;;;5110288;27;20114;-80
2024/01/04 00:57:53;;;;;;;3.38;1.23;;;6.60;99.90;;;;;;5113607;28;20147;-80
2024/01/04 01:00:18;;;;;;;4.65;0.85;;;6.60;99.90;;;;;;5129846;27;20067;-80
2024/01/04 01:02:44;;;;;;;4.28;0.75;;;6.60;99.90;;;;;;5130099;27;20036;-81
2024/01/04 01:05:10;;;;;;;3.78;0.80;;;6.60;99.90;;;;;;5112436;28;20038;-80
2024/01/04 01:07:35;;;;;;;4.07;0.98;;;6.60;99.90;;;;;;5147999;27;20127;-81
2024/01/04 01:10:01;;;;;;;3.88;1.20;;;6.60;99.90;;;;;;5096805;28;20039;-80
2024/01/04 01:12:27;;;;;;;4.40;0.60;;;6.60;99.90;;;;;;5095776;28;20488;-80
2024/01/04 01:14:53;;;;;;;4.55;1.15;;;6.70;99.90;;;;;;5111008;27;20035;-80
2024/01/04 01:17:18;;;;;;;5.35;1.17;;;6.50;99.90;;;;;;5113246;28;20403;-80
2024/01/04 01:19:44;;;;;;;2.67;0.60;;;6.50;99.90;;;;;;5113296;28;20031;-80
2024/01/04 01:22:10;;;;;;;3.53;0.70;;;6.40;99.90;;;;;;5095500;28;20065;-80
2024/01/04 01:24:35;;;;;;;6.25;1.10;;;6.50;99.90;;;;;;5095006;27;20038;-81
2024/01/04 01:27:01;;;;;;;4.68;0.80;;;6.50;99.90;;;;;;5096310;28;20041;-80
2024/01/04 01:29:27;;;;;;;5.68;0.77;;;6.50;99.90;;;;;;5129527;27;20118;-80
2024/01/04 01:31:52;;;;;;;2.17;0.73;;;6.50;99.90;;;;;;5095659;28;20031;-80
2024/01/04 01:34:18;;;;;;;3.03;0.65;;;6.40;99.90;;;;;;5145392;27;20048;-80
2024/01/04 01:36:44;;;;;;;4.55;0.70;;;6.40;99.90;;;;;;5095578;28;20039;-80
2024/01/04 01:39:09;;;;;;;4.75;1.25;;;6.40;99.90;;;;;;5146815;27;20079;-80
2024/01/04 01:41:35;;;;;;;2.38;0.70;;;6.40;99.90;;;;;;5113027;28;20047;-80
2024/01/04 01:44:00;;;;;;;3.08;0.70;;;6.30;99.90;;;;;;5145653;27;20034;-80
2024/01/04 01:46:26;;;;;;;3.97;0.75;;;6.30;99.90;;;;;;5089309;28;20506;-81
2024/01/04 01:48:52;;;;;;;2.78;0.80;;;6.30;99.90;;;;;;5109178;28;20032;-80
2024/01/04 01:51:18;;;;;;;2.00;0.77;;;6.20;99.90;;;;;;5125232;27;20108;-80
2024/01/04 01:53:44;;;;;;;3.40;0.80;;;6.30;99.90;;;;;;5088244;28;20043;-80
2024/01/04 01:56:10;;;;;;;3.20;0.90;;;6.20;99.90;;;;;;5094249;28;20471;-80
2024/01/04 01:58:37;;;;;;;3.42;0.60;;;6.20;99.90;;;;;;5125950;27;20118;-82
2024/01/04 02:01:03;;;;;;;4.38;0.90;;;6.20;99.90;;;;;;5092171;28;20031;-80
2024/01/04 02:03:28;;;;;;;3.67;0.80;;;6.20;99.90;;;;;;5113629;27;20032;-80
2024/01/04 02:05:54;;;;;;;3.05;0.93;;;6.20;99.90;;;;;;5091136;28;20032;-80
2024/01/04 02:08:20;;;;;;;6.05;1.17;;;6.20;99.90;;;;;;5093371;28;20027;-80
2024/01/04 02:10:47;;;;;;;2.90;0.68;;;6.20;99.90;;;;;;5086989;28;20035;-80
2024/01/04 02:13:12;;;;;;;2.65;0.60;;;6.20;99.90;;;;;;5089798;28;20058;-80
2024/01/04 02:15:38;;;;;;;5.82;1.00;;;6.10;99.90;;;;;;5141823;27;20040;-80
2024/01/04 02:18:04;;;;;;;7.97;0.90;;;6.20;99.90;;;;;;5108968;28;20094;-80
2024/01/04 02:20:29;;;;;;;4.45;0.90;;;6.10;99.90;;;;;;5124833;27;20129;-80
2024/01/04 02:22:55;;;;;;;4.55;1.75;;;6.10;99.90;;;;;;5094105;28;20036;-80
2024/01/04 02:25:21;;;;;;;1.63;0.60;;;6.10;99.90;;;;;;5125063;27;20044;-80
2024/01/04 02:27:46;;;;;;;3.60;0.52;;;6.20;99.90;;;;;;5099885;28;20039;-80
2024/01/04 02:30:12;;;;;;;1.52;0.50;;;6.10;99.90;;;;;;5090247;28;20044;-80
2024/01/04 02:32:38;;;;;;;1.75;0.60;;;6.10;99.90;;;;;;5099901;28;20040;-80
2024/01/04 02:35:04;;;;;;;2.83;0.50;;;6.10;99.90;;;;;;5116752;27;20604;-80
2024/01/04 02:37:30;;;;;;;5.75;0.85;;;6.10;99.90;;;;;;5118711;27;20074;-80
2024/01/04 02:39:56;;;;;;;5.82;0.80;;;6.10;99.90;;;;;;5108995;27;20035;-81
2024/01/04 02:42:21;;;;;;;7.47;0.85;;;6.10;99.90;;;;;;5101260;28;20040;-80
2024/01/04 02:44:47;;;;;;;3.22;0.77;;;6.10;99.90;;;;;;5101568;28;20028;-80
2024/01/04 02:47:13;;;;;;;3.17;0.70;;;5.90;99.90;;;;;;5102355;28;20052;-81
2024/01/04 02:49:39;;;;;;;5.35;0.65;;;6.00;99.90;;;;;;5126084;27;20052;-80
2024/01/04 02:52:05;;;;;;;2.03;0.50;;;5.90;99.90;;;;;;5079989;28;20408;-80
2024/01/04 02:54:31;;;;;;;5.95;1.20;;;5.90;99.90;;;;;;5099054;28;20122;-80
2024/01/04 02:56:56;;;;;;;1.77;0.60;;;5.90;99.90;;;;;;5074664;28;20108;-80
2024/01/04 02:59:22;;;;;;;5.32;1.05;;;6.00;99.90;;;;;;5091931;28;20205;-80
2024/01/04 03:01:48;;;;;;;3.13;0.90;;;5.80;99.90;;;;;;5072848;28;20071;-80
2024/01/04 03:04:15;;;;;;;2.92;0.77;;;5.80;99.90;;;;;;5103315;27;20035;-80
2024/01/04 03:06:41;;;;;;;7.03;0.90;;;5.80;99.90;;;;;;5070715;27;20089;-80
2024/01/04 03:09:07;;;;;;;2.72;0.55;;;5.70;99.90;;;;;;5108368;27;20159;-80
2024/01/04 03:11:33;;;;;;;3.00;0.65;;;5.70;99.90;;;;;;5089611;28;20040;-80
2024/01/04 03:13:58;;;;;;;3.65;0.75;;;5.70;99.90;;;;;;5123375;27;20046;-80
2024/01/04 03:16:24;;;;;;;2.30;0.50;;;5.60;99.90;;;;;;5114521;28;20047;-80
2024/01/04 03:18:50;;;;;;;2.58;0.68;;;5.60;99.90;;;;;;5110027;27;20046;-80
2024/01/04 03:21:17;;;;;;;1.70;0.45;;;5.50;99.90;;;;;;5104835;27;20032;-80
2024/01/04 03:23:43;;;;;;;2.67;0.70;;;5.50;99.90;;;;;;5083211;27;20061;-80
2024/01/04 03:26:08;;;;;;;2.83;0.60;;;5.60;99.90;;;;;;5092439;27;20048;-80
2024/01/04 03:28:34;;;;;;;1.98;0.50;;;5.40;99.90;;;;;;5113187;27;20086;-80
2024/01/04 03:31:00;;;;;;;2.28;0.60;;;5.40;99.90;;;;;;5095737;27;20047;-80
2024/01/04 03:33:25;;;;;;;3.55;0.63;;;5.40;99.90;;;;;;5080101;27;20040;-80
2024/01/04 03:35:51;;;;;;;1.00;0.52;;;5.40;99.90;;;;;;5084752;27;20043;-80
2024/01/04 03:38:17;;;;;;;2.97;0.60;;;5.30;99.90;;;;;;5071022;27;20040;-80
2024/01/04 03:40:42;;;;;;;3.67;0.70;;;5.40;99.90;;;;;;5105984;27;20050;-80
2024/01/04 03:43:08;;;;;;;2.25;0.40;;;5.30;99.90;;;;;;5108528;27;20031;-80
2024/01/04 03:45:34;;;;;;;4.25;0.65;;;5.20;99.90;;;;;;5072896;27;20031;-80
2024/01/04 03:48:00;;;;;;;3.50;0.63;;;5.20;99.90;;;;;;5074027;28;20520;-80
2024/01/04 03:50:26;;;;;;;1.83;0.55;;;5.10;99.90;;;;;;5115174;27;20036;-80
2024/01/04 03:52:52;;;;;;;3.45;0.60;;;5.20;99.90;;;;;;5114776;28;20047;-80
2024/01/04 03:55:18;;;;;;;3.83;0.80;;;5.20;99.90;;;;;;5109159;27;20039;-80
2024/01/04 03:57:44;;;;;;;2.90;0.65;;;5.10;99.90;;;;;;5087583;27;20399;-79
2024/01/04 04:00:10;;;;;;;2.35;0.63;;;5.20;99.90;;;;;;5090121;27;20059;-79
2024/01/04 04:02:36;;;;;;;4.97;0.90;;;5.20;99.90;;;;;;5131763;27;20024;-80
2024/01/04 04:05:01;;;;;;;2.55;0.68;;;5.20;99.90;;;;;;5095961;27;20471;-80
2024/01/04 04:07:27;;;;;;;3.88;0.60;;;5.10;99.90;;;;;;5119688;27;20044;-80
2024/01/04 04:09:53;;;;;;;1.20;0.40;;;5.20;99.90;;;;;;5087024;27;20047;-79
2024/01/04 04:12:19;;;;;;;4.28;0.98;;;5.30;99.90;;;;;;5102304;27;20130;-79
2024/01/04 04:14:45;;;;;;;3.90;0.80;;;5.20;99.90;;;;;;5093089;27;20043;-79
2024/01/04 04:17:10;;;;;;;1.70;0.70;;;5.10;99.90;;;;;;5101516;27;20491;-80
2024/01/04 04:19:36;;;;;;;3.05;0.68;;;5.10;99.90;;;;;;5087677;27;20037;-80
2024/01/04 04:22:02;;;;;;;5.07;0.63;;;5.10;99.90;;;;;;5105513;27;20399;-80
2024/01/04 04:24:27;;;;;;;2.55;0.90;;;5.10;99.90;;;;;;5115089;27;20035;-80
2024/01/04 04:26:53;;;;;;;2.63;0.50;;;5.10;99.90;;;;;;5095260;27;20391;-80
2024/01/04 04:29:18;;;;;;;4.63;0.52;;;5.10;99.90;;;;;;5124480;27;20032;-79
2024/01/04 04:31:47;;;;;;;4.50;0.80;;;5.10;99.90;;;;;;5086419;27;20850;-80
2024/01/04 04:34:13;;;;;;;4.95;0.80;;;5.20;99.90;;;;;;5101784;27;20066;-80
2024/01/04 04:36:40;;;;;;;2.28;0.60;;;5.10;99.90;;;;;;5105345;27;20143;-80
2024/01/04 04:39:07;;;;;;;5.57;0.70;;;5.10;99.90;;;;;;5118034;27;20047;-80
2024/01/04 04:41:32;;;;;;;3.53;0.70;;;5.00;99.90;;;;;;5108285;27;20042;-79
2024/01/04 04:43:58;;;;;;;3.50;0.80;;;5.00;99.90;;;;;;5102700;27;20530;-80
2024/01/04 04:46:24;;;;;;;2.70;0.52;;;5.00;99.90;;;;;;5121225;27;20123;-81
2024/01/04 04:48:54;;;;;;;4.80;0.68;;;5.10;99.90;;;;;;5086505;27;20042;-79
2024/01/04 04:51:21;;;;;;;4.47;0.65;;;5.00;99.90;;;;;;5117916;27;20051;-80
2024/01/04 04:53:47;;;;;;;3.47;0.60;;;5.00;99.90;;;;;;5071849;28;20131;-80
2024/01/04 04:56:12;;;;;;;1.58;0.63;;;5.00;99.90;;;;;;5093141;27;20043;-80
2024/01/04 04:58:38;;;;;;;2.72;0.60;;;5.00;99.90;;;;;;5088804;27;20056;-80
2024/01/04 05:01:04;;;;;;;3.20;0.50;;;5.00;99.90;;;;;;5122573;27;20071;-80
2024/01/04 05:03:29;;;;;;;1.80;0.52;;;5.00;99.90;;;;;;5140799;27;20038;-80
2024/01/04 05:05:55;;;;;;;2.83;0.60;;;5.00;99.90;;;;;;5128717;27;20035;-80
2024/01/04 05:08:20;;;;;;;5.30;0.90;;;5.00;99.90;;;;;;5132061;27;20039;-80
2024/01/04 05:10:46;;;;;;;5.10;0.73;;;5.00;99.90;;;;;;5130690;27;20031;-79
2024/01/04 05:13:12;;;;;;;4.68;0.80;;;5.00;99.90;;;;;;5117176;27;20164;-80
2024/01/04 05:15:37;;;;;;;3.45;0.80;;;4.90;99.90;;;;;;5134316;27;20046;-80
2024/01/04 05:18:03;;;;;;;2.47;0.60;;;5.00;99.90;;;;;;5125273;27;20042;-79
2024/01/04 05:20:29;;;;;;;4.13;0.90;;;5.00;99.90;;;;;;5130436;27;20523;-80
2024/01/04 05:22:56;;;;;;;3.28;0.63;;;5.10;99.90;;;;;;5111417;28;20031;-79
2024/01/04 05:25:21;;;;;;;2.72;0.73;;;5.00;99.90;;;;;;5125520;27;20063;-80
2024/01/04 05:27:47;;;;;;;6.43;0.75;;;5.00;99.90;;;;;;5128315;27;20497;-80
2024/01/04 05:30:13;;;;;;;3.20;0.85;;;5.00;99.90;;;;;;5147846;27;20031;-79
2024/01/04 05:32:38;;;;;;;3.17;0.90;;;5.00;99.90;;;;;;5145596;27;20039;-79
2024/01/04 05:35:04;;;;;;;3.50;0.80;;;5.00;99.90;;;;;;5151466;27;20040;-79
2024/01/04 05:37:30;;;;;;;3.17;0.60;;;5.00;99.90;;;;;;5096116;28;20046;-79
2024/01/04 05:39:56;;;;;;;2.60;0.60;;;4.90;99.90;;;;;;5113306;27;20122;-79
2024/01/04 05:42:21;;;;;;;6.60;0.70;;;5.00;99.90;;;;;;5125050;27;20054;-79
2024/01/04 05:44:47;;;;;;;1.52;0.70;;;5.00;99.90;;;;;;5145963;27;20085;-79
2024/01/04 05:47:12;;;;;;;4.47;0.98;;;4.90;99.90;;;;;;5116626;27;20043;-80
2024/01/04 05:49:38;;;;;;;1.20;0.50;;;5.00;99.90;;;;;;5111519;27;20115;-80
2024/01/04 05:52:04;;;;;;;5.03;0.90;;;4.90;99.90;;;;;;5112746;28;20047;-79
2024/01/04 05:54:30;;;;;;;4.03;0.68;;;4.90;99.90;;;;;;5094783;28;20039;-80
2024/01/04 05:56:55;;;;;;;4.18;0.60;;;4.90;99.90;;;;;;5114495;27;20476;-79
2024/01/04 05:59:24;;;;;;;1.23;0.52;;;4.90;99.90;;;;;;5095437;28;20052;-79
2024/01/04 06:01:50;;;;;;;4.57;0.70;;;4.90;99.90;;;;;;5099023;27;20429;-79
2024/01/04 06:04:16;;;;;;;0.95;0.40;;;4.90;99.90;;;;;;5104022;27;20035;-80
2024/01/04 06:06:42;;;;;;;2.33;0.63;;;4.90;99.90;;;;;;5102090;28;20069;-79
2024/01/04 06:09:07;;;;;;;5.88;0.70;;;4.90;99.90;;;;;;5104346;27;20063;-79
2024/01/04 06:11:33;;;;;;;3.67;0.70;;;4.80;99.90;;;;;;5091614;27;20462;-79
2024/01/04 06:13:59;;;;;;;1.85;0.60;;;4.80;99.90;;;;;;5083788;27;20054;-79
2024/01/04 06:16:24;;;;;;;3.28;1.10;;;4.80;99.90;;;;;;5105576;27;20407;-80
2024/01/04 06:18:51;;;;;;;3.38;0.70;;;4.80;99.90;;;;;;5070018;28;20407;-80
2024/01/04 06:21:17;;;;;;;4.32;0.80;;;4.80;99.90;;;;;;5106167;27;20039;-80
2024/01/04 06:23:42;;;;;;;1.98;0.60;;;4.70;99.90;;;;;;5119980;27;20097;-79
2024/01/04 06:26:08;;;;;;;2.05;0.70;;;4.70;99.90;;;;;;5112631;27;20339;-79
2024/01/04 06:28:36;;;;;;;6.03;1.73;;;4.70;99.90;;;;;;5116844;27;20054;-79
2024/01/04 06:31:02;;;;;;;2.05;0.68;;;4.70;99.90;;;;;;5109733;28;20111;-80
2024/01/04 06:33:28;;;;;;;2.88;0.70;;;4.70;99.90;;;;;;5083900;28;20129;-80
2024/01/04 06:35:54;;;;;;;3.80;0.80;;;4.70;99.90;;;;;;5083374;28;20145;-79
2024/01/04 06:38:19;;;;;;;2.40;0.70;;;4.70;99.90;;;;;;5085891;27;20093;-79
2024/01/04 06:40:45;;;;;;;2.42;0.60;;;4.70;99.90;;;;;;5110121;27;20742;-79
2024/01/04 06:43:11;;;;;;;1.50;0.50;;;4.70;99.90;;;;;;5073626;28;20229;-79
2024/01/04 06:45:37;;;;;;;1.00;0.40;;;4.70;99.90;;;;;;5088157;27;20715;-79
2024/01/04 06:48:04;;;;;;;1.38;0.47;;;4.60;99.90;;;;;;5088432;27;20047;-79
2024/01/04 06:50:30;;;;;;;4.43;0.68;;;4.60;99.90;;;;;;5086511;27;20491;-79
2024/01/04 06:52:56;;;;;;;1.13;0.55;;;4.60;99.90;;;;;;5123233;27;20468;-79
2024/01/04 06:55:23;;;;;;;2.55;0.60;;;4.60;99.90;;;;;;5087074;27;20054;-79
2024/01/04 06:57:49;;;;;;;3.30;0.70;;;4.60;99.90;;;;;;5121034;27;20161;-79
2024/01/04 07:00:15;;;;;;;3.88;0.50;;;4.60;99.90;;;;;;5109261;27;20556;-80
2024/01/04 07:02:41;;;;;;;2.33;0.60;;;4.60;99.90;;;;;;5078367;27;20127;-79
2024/01/04 07:05:09;;;;;;;5.63;1.75;;;4.60;99.90;;;;;;5128811;27;20027;-79
2024/01/04 07:07:36;;;;;;;2.67;0.60;;;4.50;99.90;;;;;;5093462;27;20090;-79
2024/01/04 07:10:02;;;;;;;2.40;0.60;;;4.50;99.90;;;;;;5099477;27;20036;-79
2024/01/04 07:12:28;;;;;;;3.35;0.75;;;4.50;99.90;;;;;;5130481;27;20212;-79
2024/01/04 07:14:54;;;;;;;1.73;0.50;;;4.50;99.90;;;;;;5091363;28;20038;-80
2024/01/04 07:17:23;;;;;;;3.58;0.50;;;4.40;99.90;;;;;;5094793;28;20039;-79
2024/01/04 07:19:49;;;;;;;2.55;0.70;;;4.40;99.90;;;;;;5125391;27;20531;-79
2024/01/04 07:22:15;;;;;;;3.38;0.57;;;4.40;99.90;;;;;;5131535;27;20040;-79
2024/01/04 07:24:41;;;;;;;2.03;0.57;;;4.30;99.90;;;;;;5095832;28;20042;-79
2024/01/04 07:27:08;;;;;;;2.25;0.80;;;4.30;99.90;;;;;;5131863;27;20395;-80
2024/01/04 07:29:34;;;;;;;2.10;0.50;;;4.30;99.90;;;;;;5125752;27;20484;-79
2024/01/04 07:32:00;;;;;;;3.60;0.60;;;4.40;99.90;;;;;;5122002;27;20069;-79
2024/01/04 07:34:27;;;;;;;1.23;0.50;;;4.30;99.90;;;;;;5130095;27;20507;-80
2024/01/04 07:36:52;;;;;;;2.15;0.55;;;4.30;99.90;;;;;;5094388;28;20395;-79
2024/01/04 07:39:18;;;;;;;3.70;0.75;;;4.20;99.90;;;;;;5111306;28;20028;-79
2024/01/04 07:41:44;;;;;;;1.33;0.47;;;4.20;99.90;;;;;;5112694;28;20505;-79
2024/01/04 07:44:13;;;;;;;3.40;0.60;;;4.20;99.90;;;;;;5096832;28;20039;-79
2024/01/04 07:46:39;;;;;;;4.07;0.77;;;4.20;99.90;;;;;;5092243;28;20431;-79
2024/01/04 07:49:04;;;;;;;1.42;0.60;;;4.10;99.90;;;;;;5111207;27;20028;-79
2024/01/04 07:51:30;;;;;;;2.17;0.65;;;4.20;99.90;;;;;;5110775;28;20066;-79
2024/01/04 07:53:56;;;;;;;3.45;0.60;;;4.20;99.90;;;;;;5129709;27;20046;-79
2024/01/04 07:56:21;;;;;;;3.90;0.77;;;4.30;99.90;;;;;;5129568;27;20035;-79
2024/01/04 07:58:47;;;;;;;5.55;0.63;;;4.30;99.90;;;;;;5144058;27;20136;-80
2024/01/04 08:01:13;;;;;;;3.42;0.65;;;4.30;99.90;;;;;;5130137;27;20403;-80
2024/01/04 08:03:39;;;;;;;2.47;0.80;;;4.30;99.90;;;;;;5129582;27;20118;-79
2024/01/04 08:06:05;;;;;;;2.10;0.57;;;4.30;99.90;;;;;;5111390;28;20035;-80
2024/01/04 08:08:31;;;;;;;2.45;0.68;;;4.20;99.90;;;;;;5143157;27;20042;-79
2024/01/04 08:10:57;;;;;;;1.98;0.60;;;4.20;99.90;;;;;;5127483;27;20036;-80
2024/01/04 08:13:22;;;;;;;2.92;0.70;;;4.20;99.90;;;;;;5111773;28;20039;-81
2024/01/04 08:15:50;;;;;;;2.70;0.70;;;4.20;99.90;;;;;;5095924;28;20040;-79
2024/01/04 08:18:15;;;;;;;1.85;0.70;;;4.20;99.90;;;;;;5112391;27;20085;-80
2024/01/04 08:20:41;;;;;;;3.85;0.77;;;4.10;99.90;;;;;;5108619;28;20027;-79
2024/01/04 08:23:07;;;;;;;2.15;0.70;;;4.10;99.90;;;;;;5112538;28;20035;-80
2024/01/04 08:25:32;;;;;;;1.50;0.50;;;4.10;99.90;;;;;;5129775;27;20123;-79
2024/01/04 08:27:58;;;;;;;1.73;0.55;;;4.10;99.90;;;;;;5109442;27;20123;-80
2024/01/04 08:30:24;;;;;;;2.00;0.70;;;4.10;99.90;;;;;;5094383;28;20426;-79
2024/01/04 08:32:49;;;;;;;1.33;0.60;;;4.10;99.90;;;;;;5113885;28;20050;-79
2024/01/04 08:35:17;;;;;;;1.80;0.70;;;4.10;99.90;;;;;;5114575;27;20502;-79
2024/01/04 08:37:45;;;;;;;2.00;0.75;;;4.10;99.90;;;;;;5094228;28;20536;-80
2024/01/04 08:40:11;;;;;;;2.80;1.23;;;4.10;99.90;;;;;;5094445;28;20403;-80
2024/01/04 08:42:37;;;;;;;3.53;0.70;;;4.10;99.90;;;;;;5094179;28;20036;-79
2024/01/04 08:45:05;;;;;;;2.58;0.60;;;4.10;99.90;;;;;;5111015;28;20034;-80
2024/01/04 08:47:31;;;;;;;3.90;0.90;;;4.10;99.90;;;;;;5112873;28;20441;-79
2024/01/04 08:50:00;;;;;;;4.70;1.05;;;4.20;99.90;;;;;;5127873;27;20039;-79
2024/01/04 08:52:26;;;;;;;3.15;0.80;;;4.10;99.90;;;;;;5094322;28;20035;-80
2024/01/04 08:54:52;;;;;;;4.25;0.85;;;4.20;99.90;;;;;;5099491;27;20040;-79
2024/01/04 08:57:17;;;;;;;2.33;0.70;;;4.30;99.90;;;;;;5111713;28;20036;-79
2024/01/04 08:59:43;;;;;;;3.00;0.90;;;4.40;99.90;;;;;;5094373;28;20480;-79
2024/01/04 09:02:09;;;;;;;1.52;0.60;;;4.30;99.90;;;;;;5143975;27;20446;-80
2024/01/04 09:04:35;;;;;;;2.78;0.55;;;4.30;99.90;;;;;;5128747;27;20472;-79
2024/01/04 09:07:01;;;;;;;3.40;0.73;;;4.30;99.90;;;;;;5137803;27;20032;-79
2024/01/04 09:09:26;;;;;;;1.40;0.70;;;4.30;99.90;;;;;;5092295;28;20052;-79
2024/01/04 09:11:52;;;;;;;2.08;0.85;;;4.40;99.90;;;;;;5118361;27;20120;-80
2024/01/04 09:14:18;;;;;;;3.13;0.77;;;4.40;99.90;;;;;;5126080;27;20119;-80
2024/01/04 09:16:44;;;;;;;3.25;0.70;;;4.40;99.90;;;;;;5094885;28;20473;-79
2024/01/04 09:19:17;;;;;;;2.33;0.90;;;4.50;99.90;;;;;;5094901;28;20040;-79
2024/01/04 09:21:44;;;;;;;3.28;0.80;;;4.50;99.90;;;;;;5144653;27;20082;-79
2024/01/04 09:24:12;;;;;;;1.48;0.90;;;4.50;99.90;;;;;;5092036;28;20070;-79
2024/01/04 09:26:41;;;;;;;3.90;0.90;;;4.60;99.90;;;;;;5145384;27;20591;-79
2024/01/04 09:29:08;;;;;;;2.25;0.70;;;4.60;99.90;;;;;;5113454;27;20456;-79
2024/01/04 09:31:34;;;;;;;3.17;1.20;;;4.60;99.90;;;;;;5127277;27;20427;-79
2024/01/04 09:34:00;;;;;;;1.85;0.90;;;4.60;99.90;;;;;;5107867;28;20047;-79
2024/01/04 09:36:26;;;;;;;1.70;0.80;;;4.70;99.90;;;;;;5146332;27;20035;-79
2024/01/04 09:38:51;;;;;;;3.67;1.10;;;4.70;99.90;;;;;;5094016;28;20080;-80
2024/01/04 09:41:31;;;;;;;3.03;1.10;;;4.80;99.90;;;;;;5127563;27;20433;-79
2024/01/04 09:44:05;;;;;;;4.38;0.95;;;4.80;99.90;;;;;;5093052;28;20480;-79
2024/01/04 09:46:36;;;;;;;2.92;0.98;;;4.80;99.90;;;;;;5100794;28;20559;-79
2024/01/04 09:49:03;;;;;;;2.90;1.00;;;4.70;99.90;;;;;;5109765;28;20073;-79
2024/01/04 09:51:37;;;;;;;2.67;0.90;;;4.80;99.90;;;;;;5143645;27;20050;-80
2024/01/04 09:54:08;;;;;;;3.15;0.82;;;4.80;99.90;;;;;;5144904;27;20088;-79
2024/01/04 09:56:46;;;;;;;3.88;1.00;;;4.80;99.90;;;;;;5099415;28;20035;-79
2024/01/04 09:59:12;;;;;;;4.03;1.00;;;4.80;99.90;;;;;;5143506;27;20121;-80
2024/01/04 10:01:39;;;;;;;3.20;0.90;;;4.70;99.90;;;;;;5106262;28;20038;-80
2024/01/04 10:04:12;;;;;;;3.25;0.88;;;4.70;99.90;;;;;;5096130;28;20031;-80
2024/01/04 10:06:43;;;;;;;3.05;1.00;;;4.70;99.90;;;;;;5090201;28;20408;-79
2024/01/04 10:09:31;;;;;;;4.28;0.98;;;4.80;99.90;;;;;;5128966;27;20519;-79
2024/01/04 10:11:57;;;;;;;4.20;0.88;;;4.80;99.90;;;;;;5126071;27;20045;-79
2024/01/04 10:14:27;;;;;;;4.60;1.00;;;4.80;99.90;;;;;;5105627;28;20122;-80
2024/01/04 10:16:56;;;;;;;5.57;1.20;;;4.90;99.90;;;;;;5107699;28;20471;-79
2024/01/04 10:19:22;;;;;;;2.47;0.90;;;4.90;99.90;;;;;;5126750;27;20031;-79
2024/01/04 10:21:48;;;;;;;5.10;1.02;;;4.90;99.90;;;;;;5133379;27;20364;-79
2024/01/04 10:24:20;;;;;;;3.00;0.80;;;5.00;99.90;;;;;;5116236;27;20036;-81
2024/01/04 10:26:54;;;;;;;4.43;1.02;;;4.90;99.90;;;;;;5105908;28;20081;-79
2024/01/04 10:29:20;;;;;;;3.75;1.20;;;4.90;99.90;;;;;;5092797;28;20043;-79
2024/01/04 10:31:46;;;;;;;1.92;0.90;;;4.90;99.90;;;;;;5145143;27;20047;-79
2024/01/04 10:34:17;;;;;;;3.85;0.90;;;4.90;99.90;;;;;;5091299;28;20665;-79
2024/01/04 10:36:42;;;;;;;4.20;0.90;;;5.00;99.90;;;;;;5098232;28;20043;-79
2024/01/04 10:39:08;;;;;;;3.45;0.90;;;5.00;99.90;;;;;;5123870;27;20035;-79
2024/01/04 10:41:34;;;;;;;6.68;1.30;;;5.10;99.90;;;;;;5105869;28;20392;-79
2024/01/04 10:44:07;;;;;;;4.28;1.00;;;5.10;99.90;;;;;;5143520;27;20369;-79
2024/01/04 10:46:36;;;;;;;3.10;0.98;;;5.10;99.90;;;;;;5110047;28;20043;-79
2024/01/04 10:49:03;;;;;;;2.55;0.98;;;5.20;99.90;;;;;;5127600;27;20124;-79
2024/01/04 10:51:32;;;;;;;3.28;0.90;;;5.20;99.90;;;;;;5127239;27;20540;-80
2024/01/04 10:54:00;;;;;;;2.38;1.00;;;5.30;99.90;;;;;;5142578;27;20089;-79
2024/01/04 10:56:35;;;;;;;5.88;0.85;;;5.30;99.90;;;;;;5123251;27;20484;-79
2024/01/04 10:59:03;;;;;;;3.67;1.40;;;5.40;99.90;;;;;;5142656;27;20048;-79
2024/01/04 11:01:29;;;;;;;5.18;0.98;;;5.30;99.90;;;;;;5127498;28;20164;-79
2024/01/04 11:03:55;;;;;;;3.75;1.00;;;5.40;99.90;;;;;;5089300;28;20032;-80
2024/01/04 11:06:26;;;;;;;3.17;1.00;;;5.30;99.90;;;;;;5120780;27;20096;-79
2024/01/04 11:08:55;;;;;;;4.43;0.90;;;5.30;99.90;;;;;;5116727;28;20040;-79
2024/01/04 11:11:24;;;;;;;1.75;0.80;;;5.40;99.90;;;;;;5130187;27;20161;-79
2024/01/04 11:13:50;;;;;;;2.05;0.85;;;5.40;99.90;;;;;;5093346;28;20044;-79
2024/01/04 11:16:34;;;;;;;4.75;1.20;;;5.40;99.90;;;;;;5125274;27;20563;-79
2024/01/04 11:19:41;;;;;;;2.85;0.80;;;5.40;99.90;;;;;;5132585;27;20090;-79
2024/01/04 11:22:25;;;;;;;3.63;1.17;;;5.40;99.90;;;;;;5087006;28;20046;-79
2024/01/04 11:25:14;;;;;;;5.68;1.17;;;5.50;99.90;;;;;;5135528;27;20031;-79
2024/01/04 11:27:41;;;;;;;5.05;1.23;;;5.50;99.90;;;;;;5085241;28;20047;-79
2024/01/04 11:30:09;;;;;;;3.00;0.90;;;5.50;99.90;;;;;;5103928;27;20059;-79
2024/01/04 11:32:35;;;;;;;3.75;1.45;;;5.40;99.90;;;;;;5134960;27;20047;-78
2024/01/04 11:35:01;;;;;;;4.13;1.35;;;5.40;99.90;;;;;;5132965;27;20036;-79
2024/01/04 11:37:27;;;;;;;4.65;1.00;;;5.40;99.90;;;;;;5097286;27;20447;-79
2024/01/04 11:40:00;;;;;;;4.32;1.02;;;5.40;99.90;;;;;;5124115;27;20031;-80
2024/01/04 11:42:39;;;;;;;4.47;1.13;;;5.50;99.90;;;;;;5117728;27;20094;-79
2024/01/04 11:45:13;;;;;;;2.28;1.08;;;5.50;99.90;;;;;;5127833;27;20039;-79
2024/01/04 11:47:40;;;;;;;4.60;1.20;;;5.40;99.90;;;;;;5098011;28;20048;-79
2024/01/04 11:50:16;;;;;;;4.43;1.30;;;5.40;99.90;;;;;;5096359;28;20373;-79
2024/01/04 11:52:46;;;;;;;3.80;1.85;;;5.40;99.90;;;;;;5143538;27;20039;-79
2024/01/04 11:55:21;;;;;;;4.88;1.20;;;5.50;99.90;;;;;;5133823;27;20183;-79
2024/01/04 11:57:47;;;;;;;4.90;1.38;;;5.50;99.90;;;;;;5098152;28;20075;-79
2024/01/04 12:00:16;;;;;;;4.93;1.20;;;5.60;99.90;;;;;;5119854;27;20471;-79
2024/01/04 12:02:42;;;;;;;3.80;1.23;;;5.50;99.90;;;;;;5106023;27;20043;-79
2024/01/04 12:05:08;;;;;;;3.45;1.00;;;5.50;99.90;;;;;;5126377;27;20392;-79
2024/01/04 12:07:35;;;;;;;2.92;1.00;;;5.50;99.90;;;;;;5106078;28;20442;-79
2024/01/04 12:10:01;;;;;;;2.72;0.95;;;5.60;99.90;;;;;;5097602;28;20582;-78
2024/01/04 12:12:27;;;;;;;4.57;1.30;;;5.50;99.90;;;;;;5114246;28;20126;-78
2024/01/04 12:14:52;;;;;;;2.70;0.70;;;5.60;99.90;;;;;;5118235;27;20039;-79
2024/01/04 12:17:18;;;;;;;5.32;1.38;;;5.60;99.90;;;;;;5109524;27;20044;-79
2024/01/04 12:19:44;;;;;;;3.25;1.00;;;5.50;99.90;;;;;;5105334;27;20051;-79
2024/01/04 12:22:10;;;;;;;3.60;1.30;;;5.50;99.90;;;;;;5093649;28;20399;-79
2024/01/04 12:24:42;;;;;;;4.55;0.90;;;5.50;99.90;;;;;;5095269;28;20115;-79
2024/01/04 12:27:08;;;;;;;3.67;1.08;;;5.50;99.90;;;;;;5129011;27;20044;-78
2024/01/04 12:29:34;;;;;;;3.72;1.05;;;5.50;99.90;;;;;;5143357;27;20080;-79
2024/01/04 12:31:59;;;;;;;2.95;0.88;;;5.60;99.90;;;;;;5146089;27;20043;-79
2024/01/04 12:34:25;;;;;;;2.72;0.88;;;5.50;99.90;;;;;;5096106;28;20024;-79
2024/01/04 12:36:51;;;;;;;4.47;1.48;;;5.50;99.90;;;;;;5093596;27;20128;-79
2024/01/04 12:39:16;;;;;;;3.72;1.30;;;5.60;99.90;;;;;;5123922;27;20147;-78
2024/01/04 12:41:48;;;;;;;3.25;1.20;;;5.50;99.90;;;;;;5111066;28;20028;-78
2024/01/04 12:44:14;;;;;;;2.60;1.00;;;5.60;99.90;;;;;;5127647;27;20481;-78
2024/01/04 12:46:41;;;;;;;6.68;1.40;;;5.60;99.90;;;;;;5114697;27;20039;-78
2024/01/04 12:49:08;;;;;;;4.03;1.20;;;5.60;99.90;;;;;;5128773;27;20042;-78
2024/01/04 12:51:38;;;;;;;4.47;1.10;;;5.60;99.90;;;;;;5110145;28;20046;-78
2024/01/04 12:54:04;;;;;;;3.55;1.00;;;5.60;99.90;;;;;;5106191;28;20071;-78
2024/01/04 12:56:30;;;;;;;5.10;1.55;;;5.60;99.90;;;;;;5109689;28;20032;-78